Time;durP1;ratioP1;P1;durP2;ratioP2;P2;SDS_P1;SDS_P2;PMS_P1;PMS_P2;Temp;Humidity;BMP_temperature;BMP_pressure;BME280_temperature;BME280_humidity;BME280_pressure;Samples;Min_cycle;Max_cycle;Signal;HPM_P1;HPM_P2
2022/12/20 00:03:51;;;;;;;101.00;44.35;;;;;;;;;;4467359;78;44023;-77
2022/12/20 00:09:52;;;;;;;116.00;46.20;;;;;;;;;;4455147;78;44331;-78
2022/12/20 00:16:03;;;;;;;102.38;43.45;;;;;;;;;;4474842;78;43611;-78
2022/12/20 00:22:04;;;;;;;105.58;43.40;;;;;;;;;;4475045;78;44254;-78
2022/12/20 00:28:04;;;;;;;104.00;43.02;;;;;;;;;;4463856;78;44321;-78
2022/12/20 00:34:05;;;;;;;103.42;44.13;;;;;;;;;;4473121;78;44327;-77
2022/12/20 00:40:07;;;;;;;93.10;41.13;;;;;;;;;;4455208;78;43289;-77
2022/12/20 00:46:09;;;;;;;100.67;42.15;;;;;;;;;;4491417;78;43992;-77
2022/12/20 00:52:09;;;;;;;96.87;39.83;;;;;;;;;;4530880;76;43745;-76
2022/12/20 00:58:10;;;;;;;98.78;40.63;;;;;;;;;;4573352;76;43765;-79
2022/12/20 01:04:11;;;;;;;96.67;41.48;;;;;;;;;;4566442;76;43800;-75
2022/12/20 01:10:12;;;;;;;94.45;40.70;;;;;;;;;;4576507;76;44502;-84
2022/12/20 01:16:15;;;;;;;92.45;39.27;;;;;;;;;;4576788;76;44485;-77
2022/12/20 01:22:16;;;;;;;94.65;40.73;;;;;;;;;;4577979;76;43404;-85
2022/12/20 01:28:17;;;;;;;95.35;41.70;;;;;;;;;;4581233;76;43725;-82
2022/12/20 01:34:18;;;;;;;110.20;43.73;;;;;;;;;;4573414;76;44640;-81
2022/12/20 01:40:19;;;;;;;106.15;45.73;;;;;;;;;;4583565;76;44289;-82
2022/12/20 01:46:21;;;;;;;106.58;44.58;;;;;;;;;;4587149;76;44352;-82
2022/12/20 01:52:27;;;;;;;117.37;47.65;;;;;;;;;;4549286;76;43895;-82
2022/12/20 01:58:28;;;;;;;;;;;;;;;;;;4606183;76;28567;-82
2022/12/20 02:04:28;;;;;;;115.28;48.05;;;;;;;;;;4553780;76;43938;-83
2022/12/20 02:10:46;;;;;;;114.03;48.48;;;;;;;;;;4570670;76;43954;-86
2022/12/20 02:16:49;;;;;;;113.90;48.23;;;;;;;;;;4579333;76;43981;-76
2022/12/20 02:23:01;;;;;;;107.30;45.50;;;;;;;;;;4383329;79;44301;-76
2022/12/20 02:29:13;;;;;;;98.70;42.33;;;;;;;;;;4567001;76;43968;-77
2022/12/20 02:35:15;;;;;;;106.27;44.25;;;;;;;;;;4578339;76;44375;-75
2022/12/20 02:41:21;;;;;;;97.00;43.85;;;;;;;;;;4579441;76;43882;-76
2022/12/20 02:47:27;;;;;;;100.38;44.48;;;;;;;;;;4566599;76;44080;-75
2022/12/20 02:53:28;;;;;;;104.70;44.83;;;;;;;;;;4585166;76;28546;-75
2022/12/20 02:59:31;;;;;;;109.20;45.63;;;;;;;;;;4589651;76;44296;-76
2022/12/20 03:05:34;;;;;;;112.52;46.33;;;;;;;;;;4409279;79;44628;-77
2022/12/20 03:11:35;;;;;;;99.92;43.65;;;;;;;;;;4386143;79;43962;-75
2022/12/20 03:17:36;;;;;;;106.80;45.67;;;;;;;;;;4493044;78;28541;-75
2022/12/20 03:23:38;;;;;;;109.57;45.45;;;;;;;;;;4356735;79;28593;-76
2022/12/20 03:29:40;;;;;;;108.35;44.53;;;;;;;;;;4294522;80;44281;-76
2022/12/20 03:35:41;;;;;;;104.00;44.75;;;;;;;;;;4423798;79;44324;-75
2022/12/20 03:41:43;;;;;;;108.80;46.60;;;;;;;;;;4402259;79;28544;-75
2022/12/20 03:47:45;;;;;;;109.55;47.62;;;;;;;;;;4440394;79;44296;-76
2022/12/20 03:53:46;;;;;;;103.87;45.35;;;;;;;;;;4419550;79;44237;-78
2022/12/20 03:59:48;;;;;;;108.15;44.95;;;;;;;;;;4585188;76;44363;-77
2022/12/20 04:05:49;;;;;;;107.50;46.15;;;;;;;;;;4585671;76;44273;-78
2022/12/20 04:11:51;;;;;;;102.95;45.48;;;;;;;;;;4577112;76;44301;-77
2022/12/20 04:17:52;;;;;;;110.08;47.17;;;;;;;;;;4564641;76;44448;-78
2022/12/20 04:23:53;;;;;;;97.95;44.48;;;;;;;;;;4567604;76;43882;-77
2022/12/20 04:29:54;;;;;;;104.35;45.30;;;;;;;;;;4592486;76;44227;-77
2022/12/20 04:35:55;;;;;;;101.72;43.95;;;;;;;;;;4585035;76;28601;-77
2022/12/20 04:41:56;;;;;;;118.50;46.88;;;;;;;;;;4590138;76;43966;-78
2022/12/20 04:47:57;;;;;;;107.52;44.73;;;;;;;;;;4588636;76;44270;-77
2022/12/20 04:54:00;;;;;;;100.70;43.38;;;;;;;;;;4571181;76;28559;-76
2022/12/20 05:00:06;;;;;;;106.92;45.95;;;;;;;;;;4566223;76;44301;-76
2022/12/20 05:06:08;;;;;;;110.95;47.30;;;;;;;;;;4571997;76;44454;-76
2022/12/20 05:12:10;;;;;;;109.17;46.15;;;;;;;;;;4555877;76;44281;-77
2022/12/20 05:18:11;;;;;;;115.72;46.70;;;;;;;;;;4568585;76;43950;-77
2022/12/20 05:30:44;;;;;;;107.63;48.00;;;;;;;;;;4568957;76;44269;-77
2022/12/20 05:36:45;;;;;;;103.62;47.40;;;;;;;;;;4572564;76;44303;-75
2022/12/20 05:42:46;;;;;;;110.37;46.63;;;;;;;;;;4534280;76;44474;-76
2022/12/20 05:48:47;;;;;;;111.62;46.80;;;;;;;;;;4545577;76;44632;-76
2022/12/20 05:54:48;;;;;;;115.10;48.55;;;;;;;;;;4572734;76;43989;-77
2022/12/20 06:00:51;;;;;;;107.50;47.38;;;;;;;;;;4553274;76;44447;-76
2022/12/20 06:06:53;;;;;;;113.52;47.23;;;;;;;;;;4581286;76;44612;-76
2022/12/20 06:12:54;;;;;;;106.75;46.92;;;;;;;;;;4581620;76;44329;-77
2022/12/20 06:18:56;;;;;;;119.30;51.63;;;;;;;;;;4585965;76;44170;-76
2022/12/20 06:24:57;;;;;;;123.80;53.02;;;;;;;;;;4568314;76;44351;-76
2022/12/20 06:31:00;;;;;;;126.92;53.40;;;;;;;;;;4594409;76;43867;-76
2022/12/20 06:37:03;;;;;;;113.57;48.50;;;;;;;;;;4574254;76;43937;-78
2022/12/20 06:43:06;;;;;;;122.58;51.42;;;;;;;;;;4579569;76;43938;-79
2022/12/20 06:49:07;;;;;;;118.93;50.73;;;;;;;;;;4587382;76;43810;-77
2022/12/20 06:55:08;;;;;;;109.70;45.75;;;;;;;;;;4562650;76;44289;-77
2022/12/20 07:01:11;;;;;;;99.60;43.28;;;;;;;;;;4573208;76;44001;-77
2022/12/20 07:07:12;;;;;;;89.32;38.50;;;;;;;;;;4596415;76;44471;-79
2022/12/20 07:13:13;;;;;;;117.03;49.35;;;;;;;;;;4573917;76;43942;-78
2022/12/20 07:19:14;;;;;;;119.22;52.98;;;;;;;;;;4564485;76;44271;-79
2022/12/20 07:25:15;;;;;;;122.85;54.00;;;;;;;;;;4569701;76;44253;-80
2022/12/20 07:31:18;;;;;;;136.32;60.03;;;;;;;;;;4561395;76;43781;-78
2022/12/20 07:37:19;;;;;;;139.32;60.78;;;;;;;;;;4574881;76;28575;-79
2022/12/20 07:43:19;;;;;;;147.10;67.10;;;;;;;;;;4559787;76;43969;-79
2022/12/20 07:49:20;;;;;;;162.15;72.55;;;;;;;;;;4573877;76;44552;-78
2022/12/20 07:55:21;;;;;;;145.92;64.22;;;;;;;;;;4565772;76;43871;-79
2022/12/20 08:01:24;;;;;;;111.95;47.78;;;;;;;;;;4541818;77;28476;-81
2022/12/20 08:07:27;;;;;;;85.97;38.42;;;;;;;;;;4547309;76;44451;-81
2022/12/20 08:13:28;;;;;;;65.85;31.68;;;;;;;;;;4552237;77;28497;-81
2022/12/20 08:19:29;;;;;;;80.60;36.10;;;;;;;;;;4562828;76;28531;-81
2022/12/20 08:25:33;;;;;;;96.70;42.93;;;;;;;;;;4537179;76;28536;-80
2022/12/20 08:31:38;;;;;;;90.95;41.45;;;;;;;;;;4523427;77;28577;-78
2022/12/20 08:37:39;;;;;;;94.15;41.88;;;;;;;;;;4541235;76;28511;-76
2022/12/20 08:43:40;;;;;;;92.95;41.45;;;;;;;;;;4542837;76;28500;-77
2022/12/20 08:49:41;;;;;;;89.52;41.42;;;;;;;;;;4549801;76;28590;-79
2022/12/20 08:55:42;;;;;;;80.45;38.58;;;;;;;;;;4554666;76;28555;-80
2022/12/20 09:01:43;;;;;;;90.22;42.80;;;;;;;;;;4536576;76;28572;-80
2022/12/20 09:07:44;;;;;;;90.97;44.00;;;;;;;;;;4552851;76;28520;-80
2022/12/20 09:13:46;;;;;;;93.90;45.05;;;;;;;;;;4566521;76;28555;-78
2022/12/20 09:19:47;;;;;;;92.82;43.75;;;;;;;;;;4574864;76;28544;-79
2022/12/20 09:25:48;;;;;;;91.85;43.48;;;;;;;;;;4552015;76;28585;-78
2022/12/20 09:31:49;;;;;;;90.92;42.80;;;;;;;;;;4544241;76;28481;-78
2022/12/20 09:37:50;;;;;;;88.90;40.75;;;;;;;;;;4577213;76;28528;-77
2022/12/20 09:43:51;;;;;;;81.17;38.98;;;;;;;;;;4573620;76;28570;-76
2022/12/20 09:49:54;;;;;;;73.95;37.35;;;;;;;;;;4583479;76;28583;-76
2022/12/20 09:55:59;;;;;;;64.67;32.90;;;;;;;;;;4592316;76;28553;-76
2022/12/20 10:02:00;;;;;;;64.27;31.55;;;;;;;;;;4592330;76;28567;-76
2022/12/20 10:08:03;;;;;;;59.45;28.65;;;;;;;;;;4585390;76;28492;-76
2022/12/20 10:14:09;;;;;;;63.42;31.82;;;;;;;;;;4588219;76;28483;-77
2022/12/20 10:20:20;;;;;;;69.05;33.23;;;;;;;;;;4588949;76;28631;-77
2022/12/20 10:26:21;;;;;;;76.82;36.85;;;;;;;;;;4578547;76;28575;-77
2022/12/20 10:32:23;;;;;;;79.72;37.95;;;;;;;;;;4588349;76;28499;-77
2022/12/20 10:38:24;;;;;;;85.22;41.30;;;;;;;;;;4588947;76;28511;-78
2022/12/20 10:44:29;;;;;;;86.92;42.48;;;;;;;;;;4582677;76;28559;-77
2022/12/20 10:50:30;;;;;;;78.90;39.08;;;;;;;;;;4570208;76;28574;-78
2022/12/20 10:56:33;;;;;;;71.92;36.10;;;;;;;;;;4555609;76;28541;-80
2022/12/20 11:02:38;;;;;;;65.95;34.00;;;;;;;;;;4567352;76;28617;-76
2022/12/20 11:08:39;;;;;;;65.25;33.18;;;;;;;;;;4574072;76;28923;-77
2022/12/20 11:14:42;;;;;;;65.08;32.03;;;;;;;;;;4558408;76;28512;-76
2022/12/20 11:20:48;;;;;;;60.70;29.48;;;;;;;;;;4576781;76;28528;-78
2022/12/20 11:26:54;;;;;;;57.90;29.45;;;;;;;;;;4550285;76;28547;-78
2022/12/20 11:32:59;;;;;;;57.50;28.23;;;;;;;;;;4563203;76;28572;-79
2022/12/20 11:39:14;;;;;;;60.20;28.73;;;;;;;;;;4545101;76;28622;-78
2022/12/20 11:45:32;;;;;;;59.23;27.82;;;;;;;;;;4549953;76;28574;-78
2022/12/20 11:51:44;;;;;;;65.35;30.30;;;;;;;;;;4576176;76;28535;-77
2022/12/20 11:58:05;;;;;;;59.38;28.95;;;;;;;;;;4575391;76;28599;-77
2022/12/20 12:04:14;;;;;;;61.00;29.50;;;;;;;;;;4591681;76;28599;-77
2022/12/20 12:10:23;;;;;;;55.25;26.00;;;;;;;;;;4590695;76;28560;-77
2022/12/20 12:16:29;;;;;;;55.65;26.62;;;;;;;;;;4575437;76;28471;-78
2022/12/20 12:22:32;;;;;;;55.25;26.97;;;;;;;;;;4589306;76;28544;-78
2022/12/20 12:28:33;;;;;;;55.63;26.02;;;;;;;;;;4587956;76;28485;-77
2022/12/20 12:34:36;;;;;;;56.98;25.20;;;;;;;;;;4580805;76;28485;-77
2022/12/20 12:40:44;;;;;;;51.50;24.72;;;;;;;;;;4589588;76;28602;-77
2022/12/20 12:46:47;;;;;;;53.52;25.62;;;;;;;;;;4569263;76;28557;-78
2022/12/20 12:52:50;;;;;;;53.60;24.72;;;;;;;;;;4575134;76;28577;-77
2022/12/20 12:59:08;;;;;;;53.05;25.02;;;;;;;;;;4571668;76;28579;-77
2022/12/20 13:05:13;;;;;;;48.02;23.07;;;;;;;;;;4573404;76;28502;-77
2022/12/20 13:11:16;;;;;;;56.70;23.73;;;;;;;;;;4572274;76;28469;-78
2022/12/20 13:17:19;;;;;;;51.37;24.43;;;;;;;;;;4579004;76;28523;-77
2022/12/20 13:23:20;;;;;;;55.00;25.65;;;;;;;;;;4590366;76;28530;-83
2022/12/20 13:29:26;;;;;;;56.30;26.40;;;;;;;;;;4584178;76;28515;-84
2022/12/20 13:35:31;;;;;;;49.03;23.77;;;;;;;;;;4587741;76;28547;-82
2022/12/20 13:41:34;;;;;;;48.10;21.13;;;;;;;;;;4587375;76;37167;-83
2022/12/20 13:47:43;;;;;;;48.78;22.07;;;;;;;;;;4572212;76;28516;-82
2022/12/20 13:53:50;;;;;;;49.83;23.50;;;;;;;;;;4551780;76;28588;-84
2022/12/20 13:59:52;;;;;;;54.38;23.92;;;;;;;;;;4557727;77;28505;-83
2022/12/20 14:06:04;;;;;;;54.50;23.77;;;;;;;;;;4565424;76;28474;-83
2022/12/20 14:12:07;;;;;;;59.70;27.05;;;;;;;;;;4571047;76;28543;-82
2022/12/20 14:18:16;;;;;;;57.45;26.02;;;;;;;;;;4559884;77;28556;-83
2022/12/20 14:24:21;;;;;;;55.70;23.57;;;;;;;;;;4562726;77;28485;-82
2022/12/20 14:30:29;;;;;;;53.35;24.15;;;;;;;;;;4564290;76;28504;-84
2022/12/20 14:36:30;;;;;;;54.83;24.65;;;;;;;;;;4562053;76;28562;-83
2022/12/20 14:42:36;;;;;;;57.25;25.82;;;;;;;;;;4518972;77;28487;-83
2022/12/20 14:48:37;;;;;;;57.93;24.93;;;;;;;;;;4543598;77;28493;-83
2022/12/20 14:54:45;;;;;;;55.00;25.45;;;;;;;;;;4566825;76;28514;-83
2022/12/20 15:00:48;;;;;;;59.70;26.82;;;;;;;;;;4570228;76;28508;-83
2022/12/20 15:06:51;;;;;;;63.17;27.98;;;;;;;;;;4570827;76;28469;-83
2022/12/20 15:12:52;;;;;;;63.33;28.50;;;;;;;;;;4581958;76;28563;-83
2022/12/20 15:18:54;;;;;;;59.23;28.52;;;;;;;;;;4532085;76;28449;-83
2022/12/20 15:24:56;;;;;;;61.68;28.90;;;;;;;;;;4533754;76;28531;-83
2022/12/20 15:30:57;;;;;;;63.17;28.35;;;;;;;;;;4588113;76;28486;-84
2022/12/20 15:36:59;;;;;;;61.45;28.25;;;;;;;;;;4583299;76;28518;-82
2022/12/20 15:43:02;;;;;;;60.88;26.93;;;;;;;;;;4568788;76;29058;-84
2022/12/20 15:49:23;;;;;;;60.38;27.85;;;;;;;;;;4597849;76;28530;-83
2022/12/20 15:55:15;;;;;;;58.63;27.55;;;;;;;;;;4518334;77;28579;-84
2022/12/20 16:01:18;;;;;;;59.23;26.00;;;;;;;;;;4487630;77;28494;-84
2022/12/20 16:07:19;;;;;;;63.75;27.73;;;;;;;;;;4489667;77;28536;-83
2022/12/20 16:13:21;;;;;;;60.20;27.00;;;;;;;;;;4475512;77;28526;-83
2022/12/20 16:19:25;;;;;;;60.33;27.42;;;;;;;;;;4462721;77;28523;-84
2022/12/20 16:25:29;;;;;;;63.55;28.12;;;;;;;;;;4477378;77;28566;-84
2022/12/20 16:31:31;;;;;;;65.15;28.73;;;;;;;;;;4498894;77;28526;-84
2022/12/20 16:37:32;;;;;;;61.65;29.00;;;;;;;;;;4479224;77;28551;-83
2022/12/20 16:43:33;;;;;;;58.70;27.95;;;;;;;;;;4480279;77;28549;-84
2022/12/20 16:49:34;;;;;;;62.62;28.10;;;;;;;;;;4489043;78;28528;-83
2022/12/20 16:55:35;;;;;;;60.17;28.05;;;;;;;;;;4484210;77;28493;-84
2022/12/20 17:01:37;;;;;;;62.05;27.65;;;;;;;;;;4590119;76;28486;-84
2022/12/20 17:07:38;;;;;;;63.90;28.55;;;;;;;;;;4504198;78;28542;-84
2022/12/20 17:13:42;;;;;;;63.63;27.90;;;;;;;;;;4370476;79;28492;-83
2022/12/20 17:19:43;;;;;;;60.25;26.68;;;;;;;;;;4584453;76;28532;-85
2022/12/20 17:25:44;;;;;;;65.00;28.80;;;;;;;;;;4593632;76;28512;-84
2022/12/20 17:31:46;;;;;;;62.98;27.90;;;;;;;;;;4592995;76;28508;-84
2022/12/20 17:37:48;;;;;;;63.15;28.45;;;;;;;;;;4594834;76;28508;-84
2022/12/20 17:43:49;;;;;;;56.25;25.70;;;;;;;;;;4557241;76;28506;-84
2022/12/20 17:49:50;;;;;;;57.25;27.42;;;;;;;;;;4565358;76;28508;-84
2022/12/20 17:55:51;;;;;;;56.73;26.27;;;;;;;;;;4589376;76;28517;-83
2022/12/20 18:01:52;;;;;;;55.52;26.37;;;;;;;;;;4584402;76;28473;-84
2022/12/20 18:07:54;;;;;;;53.73;25.08;;;;;;;;;;4577186;76;28465;-84
2022/12/20 18:13:56;;;;;;;57.75;26.20;;;;;;;;;;4582423;76;28613;-84
2022/12/20 18:19:58;;;;;;;54.95;25.88;;;;;;;;;;4589371;76;28516;-84
2022/12/20 18:26:12;;;;;;;57.35;25.97;;;;;;;;;;4577199;76;28522;-83
2022/12/20 18:32:16;;;;;;;55.33;25.62;;;;;;;;;;4587938;76;28451;-85
2022/12/20 18:38:17;;;;;;;56.18;25.62;;;;;;;;;;4589670;76;28564;-85
2022/12/20 18:44:18;;;;;;;54.63;24.60;;;;;;;;;;4565973;76;28527;-85
2022/12/20 18:50:24;;;;;;;52.13;23.90;;;;;;;;;;4557710;76;28542;-82
2022/12/20 18:56:27;;;;;;;59.27;26.80;;;;;;;;;;4579354;77;28572;-83
2022/12/20 19:02:36;;;;;;;55.80;26.02;;;;;;;;;;4601599;76;28526;-84
2022/12/20 19:08:44;;;;;;;;;;;;;;;;;;4584495;76;28519;-84
2022/12/20 19:14:45;;;;;;;52.38;23.77;;;;;;;;;;4568164;76;20215;-84
2022/12/20 19:20:46;;;;;;;59.27;25.50;;;;;;;;;;4581018;76;28512;-84
2022/12/20 19:26:49;;;;;;;52.03;25.35;;;;;;;;;;4561288;76;28477;-84
2022/12/20 19:32:50;;;;;;;56.28;26.17;;;;;;;;;;4585482;76;28527;-84
2022/12/20 19:38:55;;;;;;;57.05;26.00;;;;;;;;;;4578967;76;28479;-84
2022/12/20 19:44:56;;;;;;;62.13;27.75;;;;;;;;;;4555698;76;28546;-85
2022/12/20 19:51:01;;;;;;;59.73;27.15;;;;;;;;;;4565675;76;28470;-84
2022/12/20 19:57:02;;;;;;;;;;;;;;;;;;4562050;76;28543;-84
2022/12/20 20:03:03;;;;;;;59.33;28.05;;;;;;;;;;4551690;77;20212;-84
2022/12/20 20:09:04;;;;;;;63.80;29.87;;;;;;;;;;4546760;77;28505;-82
2022/12/20 20:15:06;;;;;;;73.83;32.88;;;;;;;;;;4540193;77;28488;-84
2022/12/20 20:21:09;;;;;;;70.87;33.15;;;;;;;;;;4536388;77;28535;-84
2022/12/20 20:27:10;;;;;;;73.33;35.48;;;;;;;;;;4546023;76;28538;-84
2022/12/20 20:33:11;;;;;;;70.80;34.18;;;;;;;;;;4550367;77;28529;-83
2022/12/20 20:39:12;;;;;;;78.62;35.28;;;;;;;;;;4536929;77;28553;-84
2022/12/20 20:45:13;;;;;;;77.47;35.65;;;;;;;;;;4531985;76;28520;-84
2022/12/20 20:51:14;;;;;;;82.80;37.25;;;;;;;;;;4523763;77;28515;-83
2022/12/20 20:57:17;;;;;;;86.87;37.42;;;;;;;;;;4544589;76;28533;-83
2022/12/20 21:03:18;;;;;;;80.35;38.28;;;;;;;;;;4544722;76;28528;-84
2022/12/20 21:09:19;;;;;;;87.17;39.45;;;;;;;;;;4593077;76;28526;-84
2022/12/20 21:15:19;;;;;;;95.10;40.03;;;;;;;;;;4574598;76;28536;-84
2022/12/20 21:21:21;;;;;;;89.45;39.63;;;;;;;;;;4593582;76;28622;-85
2022/12/20 21:27:23;;;;;;;90.85;41.58;;;;;;;;;;4588946;76;28488;-85
2022/12/20 21:33:24;;;;;;;91.12;41.15;;;;;;;;;;4579013;76;28464;-85
2022/12/20 21:39:25;;;;;;;100.10;42.17;;;;;;;;;;4571228;76;28576;-83
2022/12/20 21:45:25;;;;;;;98.70;42.65;;;;;;;;;;4582778;76;28528;-85
2022/12/20 21:51:27;;;;;;;95.25;43.45;;;;;;;;;;4566735;76;28483;-85
2022/12/20 21:57:29;;;;;;;96.75;42.70;;;;;;;;;;4580166;76;28496;-85
2022/12/20 22:03:30;;;;;;;94.55;41.90;;;;;;;;;;4552585;77;28535;-85
2022/12/20 22:09:31;;;;;;;90.32;40.15;;;;;;;;;;4544314;77;28527;-84
2022/12/20 22:15:32;;;;;;;90.60;41.40;;;;;;;;;;4518957;77;28552;-84
2022/12/20 22:21:33;;;;;;;85.17;38.15;;;;;;;;;;4555269;76;28556;-84
2022/12/20 22:27:34;;;;;;;89.37;39.70;;;;;;;;;;4492839;77;28486;-84
2022/12/20 22:33:36;;;;;;;86.82;39.38;;;;;;;;;;4564300;77;28479;-84
2022/12/20 22:39:37;;;;;;;83.72;38.40;;;;;;;;;;4544400;77;28515;-84
2022/12/20 22:45:37;;;;;;;88.35;38.58;;;;;;;;;;4566412;77;28516;-85
2022/12/20 22:51:38;;;;;;;94.58;39.60;;;;;;;;;;4545063;77;28500;-84
2022/12/20 22:57:41;;;;;;;86.87;38.92;;;;;;;;;;4573259;76;28529;-84
2022/12/20 23:03:43;;;;;;;86.12;38.25;;;;;;;;;;4573063;76;28549;-84
2022/12/20 23:09:44;;;;;;;82.17;37.15;;;;;;;;;;4573960;76;28561;-84
2022/12/20 23:15:46;;;;;;;84.32;37.38;;;;;;;;;;4581099;76;28488;-84
2022/12/20 23:28:09;;;;;;;76.62;34.53;;;;;;;;;;4572287;76;28484;-84
2022/12/20 23:34:10;;;;;;;83.05;33.92;;;;;;;;;;4541691;76;28547;-84
2022/12/20 23:40:12;;;;;;;82.57;34.48;;;;;;;;;;4556750;76;28485;-84
2022/12/20 23:46:14;;;;;;;72.37;31.30;;;;;;;;;;4571101;76;44147;-84
2022/12/20 23:52:15;;;;;;;77.17;32.38;;;;;;;;;;4567389;76;28472;-84
2022/12/20 23:58:16;;;;;;;69.42;31.82;;;;;;;;;;4529622;76;28513;-83
